Vremea acum in Galați - Romania

Vrei sa afli care e starea vremii acum in Galati - Romania? Dorim sa iti furnizam starea vremii pentru Galati - Romania. Starea vremii Galati - Romania pentru astazi.

Vremea acum in Galați

Temperatura: 7.2 °C

Este: Ceata
Se simte ca: 5.6 °C
Innorat: 0 %
Precipitatii: 0 %
Presiune atmosferica: 1017 hPa
Umiditate: 100%
Vizibilitate: 0.2 km
Vantul bate din SSW cu 8.6 km/h

Evolutia vremii in Galați pe ore

Ora: 06:00
Senin
Temperatura: 8.4°C
Sansa de precipitatii: 0%
Ora Descriere Temp Se simte Precipitatii Umiditate Vant
00:00Senin11.2°10.1°0%64%SSE 9.7 KM/H
01:00Senin10.6°9.7°0%66%S 8.3 KM/H
02:00Senin10.2°9.2°0%68%SSW 8.3 KM/H
03:00Ceata7.2°8.5°0%100%SSW 8.6 KM/H
04:00Senin9.2°7.9°0%75%S 9 KM/H
05:00Senin8.7°7.3°0%78%S 9 KM/H
06:00Senin8.4°6.9°0%81%S 9.4 KM/H
07:00Senin10.2°9.1°0%77%S 8.6 KM/H
08:00Senin12.9°11.8°0%67%S 11.9 KM/H
09:00Senin15.1°15.1°0%58%SSE 14 KM/H
10:00Senin17.1°17.1°0%51%SSE 15.8 KM/H
11:00Senin18.9°18.9°0%45%SSE 16.9 KM/H
12:00Senin20.5°20.5°0%40%SSE 18.7 KM/H
13:00Senin21.5°21.5°0%38%SSE 19.4 KM/H
14:00Senin22.1°23.9°0%37%SSE 20.2 KM/H
15:00Senin22.1°23.9°0%38%SSE 20.9 KM/H
16:00Senin22.2°24°0%39%SSE 20.9 KM/H
17:00Senin21.6°21.6°0%41%SSE 21.2 KM/H
18:00Senin20.7°20.7°0%44%SSE 22 KM/H
19:00Senin18.9°18.9°0%52%SSE 21.6 KM/H
20:00Senin16°16°0%62%SSE 20.9 KM/H
21:00Senin13.8°12.4°0%69%SE 18 KM/H
22:00Senin12.5°11°0%74%SE 15.8 KM/H
23:00Senin11.7°10.2°0%77%SE 13.7 KM/H




tutorials